createdAt,value
2023-03-02T00:01:48.363Z,102452.34
2023-03-02T00:04:22.800Z,102474.66
2023-03-02T00:06:56.316Z,102476.75
2023-03-02T00:09:26.534Z,102497.09
2023-03-02T00:11:56.068Z,102497.84
2023-03-02T00:14:29.124Z,102486.53
2023-03-02T00:17:02.778Z,102321.53
2023-03-02T00:19:31.737Z,102472.75
2023-03-02T00:22:01.240Z,102459.38
2023-03-02T00:24:31.317Z,102422.31
2023-03-02T00:27:03.180Z,102476.44
2023-03-02T00:29:32.015Z,102475.16
2023-03-02T00:32:00.882Z,102478.53
2023-03-02T00:34:33.736Z,102420.63
2023-03-02T00:37:02.709Z,102482.72
2023-03-02T00:39:32.918Z,102490.38
2023-03-02T00:42:01.979Z,102485.06
2023-03-02T00:44:31.153Z,102459.22
2023-03-02T00:47:03.369Z,102479.19
2023-03-02T00:49:32.101Z,102479.59
2023-03-02T00:52:00.874Z,102477.91
2023-03-02T00:54:29.708Z,102473.53
2023-03-02T00:57:00.360Z,102478.50
2023-03-02T00:59:30.126Z,102474.97
2023-03-02T01:02:22.659Z,102453.53
2023-03-02T01:04:53.259Z,102473.06
2023-03-02T01:07:22.368Z,102468.66
2023-03-02T01:09:51.149Z,102474.81
2023-03-02T01:12:21.563Z,102474.88
2023-03-02T01:14:50.932Z,102468.00
2023-03-02T01:17:22.174Z,102469.38
2023-03-02T01:19:53.609Z,102495.94
2023-03-02T01:22:22.866Z,102475.38
2023-03-02T01:24:54.367Z,102479.81
2023-03-02T01:27:25.421Z,102472.81
2023-03-02T01:29:54.762Z,102476.84
2023-03-02T01:32:23.499Z,102460.63
2023-03-02T01:34:52.828Z,102477.13
2023-03-02T01:37:23.075Z,102474.50
2023-03-02T01:39:52.152Z,102449.41
2023-03-02T01:42:21.076Z,102454.50
2023-03-02T01:44:54.368Z,102469.91
2023-03-02T01:47:26.696Z,102482.00
2023-03-02T01:50:07.212Z,102310.63
2023-03-02T01:52:40.535Z,102474.38
2023-03-02T01:55:13.001Z,102457.97
2023-03-02T01:57:45.718Z,102463.09
2023-03-02T02:00:22.041Z,102227.31
2023-03-02T02:02:52.270Z,102439.94
2023-03-02T02:05:26.932Z,102444.91
2023-03-02T02:07:57.317Z,102452.88
2023-03-02T02:10:28.189Z,102453.19
2023-03-02T02:12:56.974Z,102440.06
2023-03-02T02:15:28.297Z,102449.53
2023-03-02T02:17:59.877Z,102451.81
2023-03-02T02:20:38.699Z,102445.88
2023-03-02T02:23:20.597Z,102443.41
2023-03-02T02:26:03.085Z,102440.81
2023-03-02T02:28:36.923Z,102301.84
2023-03-02T02:31:12.124Z,102441.81
2023-03-02T02:33:43.305Z,102440.16
2023-03-02T02:36:19.789Z,102421.75
2023-03-02T02:38:52.771Z,102444.38
2023-03-02T02:41:27.530Z,102439.16
2023-03-02T02:43:57.397Z,102436.59
2023-03-02T02:46:27.450Z,102429.81
2023-03-02T02:48:57.723Z,102374.59
2023-03-02T02:51:28.664Z,102424.69
2023-03-02T02:53:59.912Z,102428.03
2023-03-02T02:56:35.825Z,102420.28
2023-03-02T02:59:08.267Z,102378.81
2023-03-02T03:01:37.302Z,102412.69
2023-03-02T03:04:07.692Z,102417.97
2023-03-02T03:06:42.574Z,102420.63
2023-03-02T03:09:14.050Z,102422.53
2023-03-02T03:11:51.367Z,102416.22
2023-03-02T03:14:28.107Z,102406.75
2023-03-02T03:16:57.655Z,102412.09
2023-03-02T03:19:28.983Z,102411.19
2023-03-02T03:22:00.819Z,102409.41
2023-03-02T03:24:36.523Z,102413.56
2023-03-02T03:27:10.119Z,102344.53
2023-03-02T03:29:45.596Z,102410.94
2023-03-02T03:32:16.224Z,102411.78
2023-03-02T03:34:45.235Z,102409.16
2023-03-02T03:37:22.116Z,102411.63
2023-03-02T03:39:51.690Z,102405.22
2023-03-02T03:42:22.702Z,102406.38
2023-03-02T03:44:51.688Z,102398.69
2023-03-02T03:47:20.979Z,102410.53
2023-03-02T03:49:50.876Z,102403.75
2023-03-02T03:52:30.764Z,102173.59
2023-03-02T03:55:09.230Z,102399.44
2023-03-02T03:57:39.780Z,102417.38
2023-03-02T04:00:15.076Z,102419.06
2023-03-02T04:02:48.637Z,102414.91
2023-03-02T04:05:17.659Z,102358.69
2023-03-02T04:07:46.852Z,102419.75
2023-03-02T04:10:15.766Z,102421.59
2023-03-02T04:12:48.048Z,102417.28
2023-03-02T04:15:18.076Z,102408.53
2023-03-02T04:17:49.208Z,102405.22
2023-03-02T04:20:21.312Z,102347.41
2023-03-02T04:22:54.843Z,102420.69
2023-03-02T04:25:25.939Z,102416.94
2023-03-02T04:27:59.942Z,102414.53
2023-03-02T04:30:33.225Z,102417.25
2023-03-02T04:33:04.513Z,102409.19
2023-03-02T04:35:35.106Z,102415.25
2023-03-02T04:38:05.268Z,102417.69
2023-03-02T04:40:34.226Z,102414.38
2023-03-02T04:43:04.452Z,102417.03
2023-03-02T04:45:33.431Z,102415.09
2023-03-02T04:48:02.156Z,102423.69
2023-03-02T04:50:31.022Z,102425.59
2023-03-02T04:52:59.826Z,102428.16
2023-03-02T04:55:29.088Z,102427.47
2023-03-02T04:57:57.965Z,102416.22
2023-03-02T05:00:29.143Z,102411.88
2023-03-02T05:02:58.321Z,102423.84
2023-03-02T05:05:33.640Z,102416.81
2023-03-02T05:08:04.784Z,102408.31
2023-03-02T05:10:33.926Z,102416.81
2023-03-02T05:13:05.158Z,102402.34
2023-03-02T05:15:37.753Z,102417.84
2023-03-02T05:18:09.226Z,102411.59
2023-03-02T05:20:38.481Z,102419.16
2023-03-02T05:23:11.392Z,102414.09
2023-03-02T05:25:40.189Z,102409.78
2023-03-02T05:28:08.887Z,102407.97
2023-03-02T05:30:39.051Z,102406.31
2023-03-02T05:33:18.203Z,102392.03
2023-03-02T05:35:49.690Z,102398.06
2023-03-02T05:38:21.260Z,102412.41
2023-03-02T05:40:50.636Z,102411.28
2023-03-02T05:43:21.845Z,102408.94
2023-03-02T05:46:49.706Z,102415.03
2023-03-02T05:49:20.157Z,102393.41
2023-03-02T05:51:49.175Z,102418.25
2023-03-02T05:54:18.383Z,102414.16
2023-03-02T05:56:48.894Z,102394.94
2023-03-02T05:59:19.010Z,102411.22
2023-03-02T06:01:50.440Z,102419.72
2023-03-02T06:04:20.577Z,102418.03
2023-03-02T06:06:49.340Z,102427.56
2023-03-02T06:09:20.242Z,102432.63
2023-03-02T06:11:51.380Z,102438.47
2023-03-02T06:14:20.227Z,102424.72
2023-03-02T06:16:49.350Z,102441.06
2023-03-02T06:19:18.101Z,102442.13
2023-03-02T06:21:50.373Z,102441.13
2023-03-02T06:24:19.322Z,102448.84
2023-03-02T06:26:48.072Z,102453.75
2023-03-02T06:29:17.155Z,102444.50
2023-03-02T06:31:45.900Z,102442.59
2023-03-02T06:34:14.965Z,102448.47
2023-03-02T06:36:43.740Z,102448.47
2023-03-02T06:39:16.767Z,102445.25
2023-03-02T06:41:46.949Z,102451.66
2023-03-02T06:44:19.122Z,102443.03
2023-03-02T06:46:47.950Z,102453.13
2023-03-02T06:49:16.637Z,102457.47
2023-03-02T06:51:45.452Z,102454.09
2023-03-02T06:54:15.545Z,102456.72
2023-03-02T06:56:44.318Z,102457.25
2023-03-02T06:59:12.991Z,102458.06
2023-03-02T07:01:44.495Z,102453.69
2023-03-02T07:04:13.284Z,102443.22
2023-03-02T07:06:42.014Z,102457.09
2023-03-02T07:09:11.006Z,102453.06
2023-03-02T07:11:44.486Z,102451.34
2023-03-02T07:14:13.362Z,102443.63
2023-03-02T07:16:42.525Z,102432.75
2023-03-02T07:19:14.326Z,102438.41
2023-03-02T07:21:43.174Z,102446.63
2023-03-02T07:24:12.071Z,102452.69
2023-03-02T07:26:40.852Z,102450.72
2023-03-02T07:29:11.056Z,102455.19
2023-03-02T07:31:44.369Z,102442.97
2023-03-02T07:34:13.096Z,102451.75
2023-03-02T07:36:41.872Z,102450.84
2023-03-02T07:39:10.553Z,102454.47
2023-03-02T07:41:39.330Z,102406.09
2023-03-02T07:44:11.734Z,102441.72
2023-03-02T07:46:40.613Z,102393.28
2023-03-02T07:49:09.414Z,102430.41
2023-03-02T07:51:38.239Z,102455.50
2023-03-02T07:54:07.082Z,102441.88
2023-03-02T07:56:35.885Z,102441.69
2023-03-02T07:59:06.966Z,102446.19
2023-03-02T08:01:37.137Z,102449.97
2023-03-02T08:04:06.258Z,102264.47
2023-03-02T08:06:35.025Z,102413.81
2023-03-02T08:09:04.180Z,102454.97
2023-03-02T08:11:33.179Z,102452.75
2023-03-02T08:14:02.690Z,102456.84
2023-03-02T08:16:34.096Z,102453.50
2023-03-02T08:19:04.369Z,102454.34
2023-03-02T08:21:34.024Z,102455.34
2023-03-02T08:24:03.021Z,102451.28
2023-03-02T08:26:32.229Z,102455.41
2023-03-02T08:29:00.998Z,102455.59
2023-03-02T08:31:29.884Z,102454.91
2023-03-02T08:33:59.471Z,102450.69
2023-03-02T08:36:30.822Z,102451.56
2023-03-02T08:38:59.692Z,102459.41
2023-03-02T08:41:28.569Z,102453.59
2023-03-02T08:43:57.839Z,102454.63
2023-03-02T08:46:26.613Z,102453.13
2023-03-02T08:48:55.456Z,102417.91
2023-03-02T08:51:25.658Z,102447.41
2023-03-02T08:53:56.745Z,102405.28
2023-03-02T08:56:27.737Z,102451.06
2023-03-02T08:58:59.905Z,102447.94
2023-03-02T09:01:35.139Z,102449.72
2023-03-02T09:04:05.324Z,102426.75
2023-03-02T09:06:37.119Z,102437.22
2023-03-02T09:09:08.566Z,102439.06
2023-03-02T09:11:39.236Z,102438.41
2023-03-02T09:14:07.807Z,102443.66
2023-03-02T09:16:36.690Z,102443.00
2023-03-02T09:19:05.486Z,102438.72
2023-03-02T09:21:37.293Z,102427.69
2023-03-02T09:24:10.159Z,102438.06
2023-03-02T09:26:39.393Z,102427.03
2023-03-02T09:29:08.537Z,102435.69
2023-03-02T09:31:38.501Z,102442.66
2023-03-02T09:34:07.756Z,102436.72
2023-03-02T09:36:36.692Z,102436.81
2023-03-02T09:39:12.458Z,102417.03
2023-03-02T09:42:11.607Z,102425.72
2023-03-02T09:45:30.865Z,102424.91
2023-03-02T09:48:13.036Z,102409.47
2023-03-02T09:50:52.583Z,102438.75
2023-03-02T09:53:36.029Z,102425.00
2023-03-02T09:56:15.840Z,102428.47
2023-03-02T09:58:51.085Z,102427.59
2023-03-02T10:01:31.291Z,102426.72
2023-03-02T10:04:10.729Z,102426.69
2023-03-02T10:06:39.528Z,102424.06
2023-03-02T10:09:10.857Z,102412.06
2023-03-02T10:11:54.992Z,102418.91
2023-03-02T10:14:27.315Z,102417.97
2023-03-02T10:17:11.007Z,102412.75
2023-03-02T10:19:42.739Z,102422.97
2023-03-02T10:22:17.244Z,102410.97
2023-03-02T10:24:58.180Z,102418.59
2023-03-02T10:27:36.042Z,102424.53
2023-03-02T10:30:09.167Z,102419.28
2023-03-02T10:32:43.160Z,102410.69
2023-03-02T10:35:16.269Z,102416.69
2023-03-02T10:37:46.257Z,102414.06
2023-03-02T10:40:30.802Z,102416.56
2023-03-02T10:43:01.823Z,102412.22
2023-03-02T10:45:32.152Z,102405.06
2023-03-02T10:48:04.890Z,102397.09
2023-03-02T10:50:33.819Z,102396.88
2023-03-02T10:53:05.129Z,102366.78
2023-03-02T10:55:34.852Z,102293.81
2023-03-02T10:58:08.653Z,102366.44
2023-03-02T11:00:37.535Z,102391.97
2023-03-02T11:03:21.781Z,102373.03
2023-03-02T11:05:50.678Z,102389.16
2023-03-02T11:08:21.856Z,102384.63
2023-03-02T11:10:57.030Z,102386.94
2023-03-02T11:13:32.556Z,102241.66
2023-03-02T11:16:02.707Z,102377.84
2023-03-02T11:18:36.437Z,102372.72
2023-03-02T11:21:09.504Z,102356.66
2023-03-02T11:23:50.313Z,102382.41
2023-03-02T11:26:24.804Z,102383.59
2023-03-02T11:29:01.219Z,102383.38
2023-03-02T11:31:39.340Z,102352.56
2023-03-02T11:34:19.922Z,102364.50
2023-03-02T11:36:58.998Z,102385.16
2023-03-02T11:39:33.414Z,102331.47
2023-03-02T11:42:02.410Z,102380.16
2023-03-02T11:44:32.554Z,102376.88
2023-03-02T11:47:02.998Z,102337.78
2023-03-02T11:49:39.316Z,102378.81
2023-03-02T11:52:18.257Z,102370.84
2023-03-02T11:54:50.663Z,102378.34
2023-03-02T11:57:23.922Z,102372.59
2023-03-02T11:59:56.117Z,102368.91
2023-03-02T12:02:26.145Z,102211.13
2023-03-02T12:05:04.389Z,102365.06
2023-03-02T12:07:33.755Z,102366.00
2023-03-02T12:10:07.204Z,102326.38
2023-03-02T12:12:44.526Z,102357.72
2023-03-02T12:15:40.825Z,102354.22
2023-03-02T12:18:55.350Z,102360.16
2023-03-02T12:21:27.225Z,102333.31
2023-03-02T12:24:04.090Z,102355.31
2023-03-02T12:26:37.487Z,102332.06
2023-03-02T12:29:24.260Z,102345.75
2023-03-02T12:31:56.898Z,102341.63
2023-03-02T12:34:45.645Z,102340.59
2023-03-02T12:37:19.329Z,102304.09
2023-03-02T12:40:30.193Z,102337.03
2023-03-02T12:43:20.323Z,102332.72
2023-03-02T12:46:20.592Z,102331.19
2023-03-02T12:49:00.045Z,102330.97
2023-03-02T12:51:34.786Z,102310.38
2023-03-02T12:54:07.267Z,102335.91
2023-03-02T12:56:38.389Z,102331.63
2023-03-02T12:59:07.565Z,102324.97
2023-03-02T13:01:36.416Z,102320.69
2023-03-02T13:04:06.649Z,102320.53
2023-03-02T13:06:40.208Z,102304.53
2023-03-02T13:09:16.516Z,102299.66
2023-03-02T13:11:45.644Z,102319.13
2023-03-02T13:14:21.035Z,102317.72
2023-03-02T13:17:02.952Z,102305.72
2023-03-02T13:19:34.171Z,102305.66
2023-03-02T13:22:03.162Z,102304.63
2023-03-02T13:24:37.719Z,102304.03
2023-03-02T13:27:08.619Z,102298.09
2023-03-02T13:29:39.544Z,102257.53
2023-03-02T13:32:19.949Z,102296.38
2023-03-02T13:34:51.940Z,102287.31
2023-03-02T13:37:34.997Z,102288.66
2023-03-02T13:40:07.923Z,102285.78
2023-03-02T13:42:40.576Z,102242.69
2023-03-02T13:45:23.921Z,102286.41
2023-03-02T13:47:53.180Z,102287.53
2023-03-02T13:50:26.117Z,102283.03
2023-03-02T13:52:57.810Z,102280.66
2023-03-02T13:55:28.829Z,102279.88
2023-03-02T13:57:58.523Z,102272.47
2023-03-02T14:00:33.351Z,102227.84
2023-03-02T14:03:03.304Z,102274.63
2023-03-02T14:05:34.120Z,102274.84
2023-03-02T14:08:04.172Z,102267.25
2023-03-02T14:10:33.509Z,102265.72
2023-03-02T14:13:07.327Z,102265.31
2023-03-02T14:15:41.789Z,102260.91
2023-03-02T14:18:25.840Z,102239.69
2023-03-02T14:20:57.435Z,102226.41
2023-03-02T14:23:27.391Z,102287.41
2023-03-02T14:25:57.813Z,102214.53
2023-03-02T14:28:32.578Z,102248.44
2023-03-02T14:31:01.832Z,102233.38
2023-03-02T14:33:30.788Z,102258.56
2023-03-02T14:36:01.495Z,102258.28
2023-03-02T14:38:31.583Z,102259.28
2023-03-02T14:41:00.542Z,102255.81
2023-03-02T14:43:31.874Z,102257.22
2023-03-02T14:46:01.297Z,102254.97
2023-03-02T14:48:30.453Z,102244.09
2023-03-02T14:51:04.178Z,102251.88
2023-03-02T14:53:36.325Z,102243.03
2023-03-02T14:56:08.043Z,102249.97
2023-03-02T14:58:39.233Z,102252.81
2023-03-02T15:01:08.683Z,102234.50
2023-03-02T15:03:37.926Z,102238.09
2023-03-02T15:06:24.917Z,102238.34
2023-03-02T15:08:54.212Z,102190.38
2023-03-02T15:11:26.589Z,102227.50
2023-03-02T15:13:55.980Z,102228.25
2023-03-02T15:16:25.522Z,102203.53
2023-03-02T15:18:54.676Z,102219.59
2023-03-02T15:21:26.109Z,102235.22
2023-03-02T15:23:55.160Z,102186.06
2023-03-02T15:26:24.182Z,102221.28
2023-03-02T15:28:53.180Z,102233.31
2023-03-02T15:31:25.067Z,102200.75
2023-03-02T15:33:56.929Z,102229.56
2023-03-02T15:36:27.502Z,102234.56
2023-03-02T15:38:56.514Z,102245.22
2023-03-02T15:41:26.021Z,102230.63
2023-03-02T15:43:55.706Z,102239.13
2023-03-02T15:46:25.477Z,102201.66
2023-03-02T15:48:57.200Z,102087.84
2023-03-02T15:51:28.028Z,102238.09
2023-03-02T15:53:57.214Z,102228.81
2023-03-02T15:56:30.460Z,102229.47
2023-03-02T15:59:05.028Z,102251.16
2023-03-02T16:01:34.524Z,102235.69
2023-03-02T16:04:03.487Z,102243.50
2023-03-02T16:06:34.171Z,102233.25
2023-03-02T16:09:06.292Z,102206.03
2023-03-02T16:11:37.651Z,102217.25
2023-03-02T16:14:07.227Z,102243.00
2023-03-02T16:16:36.663Z,102247.19
2023-03-02T16:19:11.814Z,102229.06
2023-03-02T16:21:42.605Z,102249.72
2023-03-02T16:24:13.156Z,102252.34
2023-03-02T16:26:42.698Z,102253.34
2023-03-02T16:29:13.655Z,102230.16
2023-03-02T16:31:43.490Z,102230.06
2023-03-02T16:34:15.756Z,102247.06
2023-03-02T16:36:46.768Z,102210.22
2023-03-02T16:39:16.585Z,102285.97
2023-03-02T16:41:46.904Z,102257.44
2023-03-02T16:44:18.336Z,102249.78
2023-03-02T16:46:48.332Z,102227.78
2023-03-02T16:49:18.176Z,102259.56
2023-03-02T16:51:48.654Z,102270.81
2023-03-02T16:54:19.690Z,102274.47
2023-03-02T16:56:48.672Z,102265.97
2023-03-02T16:59:17.947Z,102265.09
2023-03-02T17:01:47.226Z,102266.78
2023-03-02T17:04:18.447Z,102277.06
2023-03-02T17:07:00.516Z,102285.75
2023-03-02T17:09:30.496Z,102287.66
2023-03-02T17:11:59.919Z,102272.19
2023-03-02T17:14:31.953Z,102289.31
2023-03-02T17:17:03.626Z,102281.72
2023-03-02T17:19:32.780Z,102292.03
2023-03-02T17:22:03.938Z,102280.88
2023-03-02T17:24:35.439Z,102295.53
2023-03-02T17:27:08.596Z,102292.91
2023-03-02T17:29:39.983Z,102304.25
2023-03-02T17:32:09.874Z,102304.22
2023-03-02T17:34:39.017Z,102307.72
2023-03-02T17:37:09.556Z,102316.38
2023-03-02T17:39:39.013Z,102312.91
2023-03-02T17:42:08.463Z,102312.94
2023-03-02T17:44:40.155Z,102276.91
2023-03-02T17:47:09.299Z,102317.31
2023-03-02T17:49:39.726Z,102319.84
2023-03-02T17:52:10.875Z,102310.47
2023-03-02T17:54:41.014Z,102329.38
2023-03-02T17:57:11.173Z,102336.31
2023-03-02T17:59:40.640Z,102335.44
2023-03-02T18:02:11.483Z,102335.47
2023-03-02T18:04:40.739Z,102349.19
2023-03-02T18:07:11.327Z,102339.78
2023-03-02T18:09:40.689Z,102344.06
2023-03-02T18:12:10.377Z,102344.09
2023-03-02T18:14:39.722Z,102300.25
2023-03-02T18:17:10.201Z,102351.84
2023-03-02T18:19:39.482Z,102353.56
2023-03-02T18:22:08.652Z,102361.31
2023-03-02T18:24:39.278Z,102369.06
2023-03-02T18:27:08.788Z,102371.66
2023-03-02T18:29:38.067Z,102354.47
2023-03-02T18:32:07.557Z,102375.97
2023-03-02T18:34:36.807Z,102367.38
2023-03-02T18:37:06.295Z,102382.84
2023-03-02T18:39:35.861Z,102382.84
2023-03-02T18:42:07.343Z,102371.66
2023-03-02T18:44:36.459Z,102379.38
2023-03-02T18:47:08.764Z,102373.38
2023-03-02T18:49:38.304Z,102368.22
2023-03-02T18:52:07.549Z,102382.84
2023-03-02T18:54:39.430Z,102389.72
2023-03-02T18:57:10.116Z,102376.81
2023-03-02T18:59:39.341Z,102383.69
2023-03-02T19:02:10.567Z,102388.88
2023-03-02T19:04:40.127Z,102390.53
2023-03-02T19:07:12.866Z,102388.84
2023-03-02T19:09:42.231Z,102385.41
2023-03-02T19:12:12.969Z,102356.09
2023-03-02T19:14:43.487Z,102398.28
2023-03-02T19:17:15.141Z,102395.69
2023-03-02T19:19:44.163Z,102389.66
2023-03-02T19:22:14.281Z,102402.56
2023-03-02T19:24:44.397Z,102404.28
2023-03-02T19:27:15.460Z,102402.56
2023-03-02T19:29:45.384Z,102418.81
2023-03-02T19:32:15.350Z,102399.94
2023-03-02T19:34:44.619Z,102399.06
2023-03-02T19:37:14.132Z,102399.94
2023-03-02T19:39:43.527Z,102402.50
2023-03-02T19:42:13.204Z,102408.53
2023-03-02T19:44:44.190Z,102163.31
2023-03-02T19:47:13.894Z,102206.38
2023-03-02T19:49:43.628Z,102410.28
2023-03-02T19:52:13.482Z,102405.91
2023-03-02T19:54:43.623Z,102413.66
2023-03-02T19:57:14.986Z,102411.97
2023-03-02T19:59:46.526Z,102414.53
2023-03-02T20:02:16.731Z,102405.94
2023-03-02T20:04:46.959Z,102411.97
2023-03-02T20:07:16.727Z,102417.06
2023-03-02T20:09:48.740Z,102413.56
2023-03-02T20:12:19.823Z,102426.53
2023-03-02T20:14:51.531Z,102420.44
2023-03-02T20:17:21.655Z,102399.75
2023-03-02T20:19:52.650Z,102417.00
2023-03-02T20:22:22.444Z,102392.91
2023-03-02T20:24:52.069Z,102428.13
2023-03-02T20:27:21.808Z,102431.50
2023-03-02T20:29:52.407Z,102401.34
2023-03-02T20:32:21.817Z,102435.88
2023-03-02T20:34:51.406Z,102441.78
2023-03-02T20:37:25.909Z,102445.19
2023-03-02T20:39:55.122Z,102437.47
2023-03-02T20:42:24.349Z,102436.63
2023-03-02T20:44:56.504Z,102429.72
2023-03-02T20:47:25.675Z,102423.69
2023-03-02T20:49:59.696Z,102425.44
2023-03-02T20:52:29.292Z,102433.09
2023-03-02T20:54:58.413Z,102430.53
2023-03-02T20:57:27.816Z,102436.53
2023-03-02T20:59:59.027Z,102438.16
2023-03-02T21:02:28.201Z,102433.03
2023-03-02T21:04:57.691Z,102440.75
2023-03-02T21:07:29.186Z,102435.56
2023-03-02T21:09:58.918Z,102431.25
2023-03-02T21:12:28.297Z,102446.78
2023-03-02T21:14:59.407Z,102438.91
2023-03-02T21:17:29.066Z,102444.09
2023-03-02T21:19:59.002Z,102375.19
2023-03-02T21:22:28.647Z,102171.97
2023-03-02T21:24:58.446Z,102454.50
2023-03-02T21:27:30.075Z,102458.81
2023-03-02T21:30:03.387Z,102463.03
2023-03-02T21:32:32.279Z,102448.38
2023-03-02T21:35:02.934Z,102460.44
2023-03-02T21:37:31.960Z,102465.53
2023-03-02T21:40:01.729Z,102467.25
2023-03-02T21:42:31.300Z,102410.34
2023-03-02T21:45:02.195Z,102428.31
2023-03-02T21:47:31.572Z,102449.84
2023-03-02T21:50:01.497Z,102456.78
2023-03-02T21:52:30.553Z,102451.56
2023-03-02T21:55:02.004Z,102454.16
2023-03-02T21:57:31.170Z,102437.78
2023-03-02T22:00:04.204Z,102444.66
2023-03-02T22:02:33.590Z,102445.44
2023-03-02T22:05:04.649Z,102425.63
2023-03-02T22:07:35.891Z,102435.22
2023-03-02T22:10:05.546Z,102399.78
2023-03-02T22:12:34.724Z,102443.81
2023-03-02T22:15:14.324Z,102448.09
2023-03-02T22:17:46.176Z,102449.75
2023-03-02T22:20:19.626Z,102457.34
2023-03-02T22:22:50.840Z,102456.34
2023-03-02T22:25:22.620Z,102434.94
2023-03-02T22:27:52.232Z,102424.50
2023-03-02T22:30:24.913Z,102463.28
2023-03-02T22:32:54.910Z,102462.56
2023-03-02T22:35:26.529Z,102448.69
2023-03-02T22:38:03.292Z,102452.19
2023-03-02T22:40:34.750Z,102453.88
2023-03-02T22:43:15.984Z,102434.00
2023-03-02T22:45:48.048Z,102457.97
2023-03-02T22:48:20.567Z,102457.91
2023-03-02T22:50:55.121Z,102455.44
2023-03-02T22:53:27.513Z,102454.56
2023-03-02T22:55:59.715Z,102451.16
2023-03-02T22:58:32.585Z,102448.50
2023-03-02T23:01:03.838Z,102451.97
2023-03-02T23:03:39.836Z,102453.72
2023-03-02T23:06:24.629Z,102460.50
2023-03-02T23:08:55.445Z,102458.78
2023-03-02T23:11:25.810Z,102454.47
2023-03-02T23:13:56.025Z,102451.94
2023-03-02T23:16:30.569Z,102451.94
2023-03-02T23:19:03.741Z,102451.00
2023-03-02T23:21:38.938Z,102458.63
2023-03-02T23:24:10.508Z,102460.44
2023-03-02T23:26:39.837Z,102441.44
2023-03-02T23:29:09.110Z,102460.41
2023-03-02T23:31:39.459Z,102450.94
2023-03-02T23:34:08.772Z,102453.53
2023-03-02T23:36:37.878Z,102459.53
2023-03-02T23:39:10.180Z,102450.03
2023-03-02T23:41:42.404Z,102451.81
2023-03-02T23:44:11.492Z,102458.63
2023-03-02T23:46:41.858Z,102446.69
2023-03-02T23:49:11.929Z,102447.59
2023-03-02T23:51:41.452Z,102443.25
2023-03-02T23:54:14.005Z,102449.22
2023-03-02T23:56:43.525Z,102309.47
2023-03-02T23:59:12.464Z,102453.38
